sensor_id;sensor_type;location;lat;lon;timestamp;pressure;altitude;pressure_sealevel;temperature;humidity
58668;BME280;59852;43.086;25.634;2024-02-16T00:00:39;99591.25;;;5.93;nan
58668;BME280;59852;43.086;25.634;2024-02-16T00:03:04;99587.63;;;5.97;nan
58668;BME280;59852;43.086;25.634;2024-02-16T00:05:30;99583.72;;;5.85;nan
58668;BME280;59852;43.086;25.634;2024-02-16T00:07:55;99588.72;;;5.91;nan
58668;BME280;59852;43.086;25.634;2024-02-16T00:10:22;99591.56;;;5.84;nan
58668;BME280;59852;43.086;25.634;2024-02-16T00:12:47;99585.28;;;5.91;nan
58668;BME280;59852;43.086;25.634;2024-02-16T00:15:12;99594.75;;;5.92;nan
58668;BME280;59852;43.086;25.634;2024-02-16T00:17:38;99592.22;;;5.90;nan
58668;BME280;59852;43.086;25.634;2024-02-16T00:20:03;99599.59;;;6.01;nan
58668;BME280;59852;43.086;25.634;2024-02-16T00:22:29;99587.88;;;5.89;nan
58668;BME280;59852;43.086;25.634;2024-02-16T00:24:55;99597.56;;;5.86;nan
58668;BME280;59852;43.086;25.634;2024-02-16T00:27:20;99597.16;;;5.96;nan
58668;BME280;59852;43.086;25.634;2024-02-16T00:29:45;99581.41;;;6.01;nan
58668;BME280;59852;43.086;25.634;2024-02-16T00:32:13;99582.13;;;6.04;nan
58668;BME280;59852;43.086;25.634;2024-02-16T00:34:39;99587.63;;;5.97;nan
58668;BME280;59852;43.086;25.634;2024-02-16T00:37:06;99582.69;;;5.89;nan
58668;BME280;59852;43.086;25.634;2024-02-16T00:39:35;99590.47;;;5.91;nan
58668;BME280;59852;43.086;25.634;2024-02-16T00:42:01;99585.81;;;5.99;nan
58668;BME280;59852;43.086;25.634;2024-02-16T00:44:26;99580.22;;;5.86;nan
58668;BME280;59852;43.086;25.634;2024-02-16T00:46:52;99584.69;;;5.83;nan
58668;BME280;59852;43.086;25.634;2024-02-16T00:49:17;99588.84;;;5.87;nan
58668;BME280;59852;43.086;25.634;2024-02-16T00:51:42;99585.41;;;5.86;nan
58668;BME280;59852;43.086;25.634;2024-02-16T00:54:09;99589.16;;;5.79;nan
58668;BME280;59852;43.086;25.634;2024-02-16T00:56:34;99581.72;;;5.93;nan
58668;BME280;59852;43.086;25.634;2024-02-16T00:59:00;99587.38;;;5.80;nan
58668;BME280;59852;43.086;25.634;2024-02-16T01:01:25;99585.69;;;5.79;nan
58668;BME280;59852;43.086;25.634;2024-02-16T01:03:51;99584.69;;;5.83;nan
58668;BME280;59852;43.086;25.634;2024-02-16T01:06:17;99591.88;;;5.76;nan
58668;BME280;59852;43.086;25.634;2024-02-16T01:08:42;99588.06;;;5.85;nan
58668;BME280;59852;43.086;25.634;2024-02-16T01:11:08;99583.06;;;5.80;nan
58668;BME280;59852;43.086;25.634;2024-02-16T01:13:33;99584.13;;;5.98;nan
58668;BME280;59852;43.086;25.634;2024-02-16T01:15:58;99578.72;;;5.81;nan
58668;BME280;59852;43.086;25.634;2024-02-16T01:18:24;99573.69;;;5.76;nan
58668;BME280;59852;43.086;25.634;2024-02-16T01:20:50;99574.78;;;5.70;nan
58668;BME280;59852;43.086;25.634;2024-02-16T01:23:15;99578.50;;;5.63;nan
58668;BME280;59852;43.086;25.634;2024-02-16T01:25:40;99568.34;;;5.81;nan
58668;BME280;59852;43.086;25.634;2024-02-16T01:28:06;99567.38;;;5.83;nan
58668;BME280;59852;43.086;25.634;2024-02-16T01:30:31;99572.44;;;5.86;nan
58668;BME280;59852;43.086;25.634;2024-02-16T01:32:56;99569.56;;;5.94;nan
58668;BME280;59852;43.086;25.634;2024-02-16T01:35:22;99567.88;;;5.93;nan
58668;BME280;59852;43.086;25.634;2024-02-16T01:37:47;99571.47;;;5.89;nan
58668;BME280;59852;43.086;25.634;2024-02-16T01:40:12;99562.63;;;5.94;nan
58668;BME280;59852;43.086;25.634;2024-02-16T01:42:42;99564.44;;;5.92;nan
58668;BME280;59852;43.086;25.634;2024-02-16T01:45:08;99556.47;;;5.97;nan
58668;BME280;59852;43.086;25.634;2024-02-16T01:47:41;99562.97;;;6.07;nan
58668;BME280;59852;43.086;25.634;2024-02-16T01:50:08;99564.72;;;6.07;nan
58668;BME280;59852;43.086;25.634;2024-02-16T01:52:34;99568.84;;;6.12;nan
58668;BME280;59852;43.086;25.634;2024-02-16T01:55:03;99561.97;;;5.88;nan
58668;BME280;59852;43.086;25.634;2024-02-16T01:57:29;99565.91;;;5.76;nan
58668;BME280;59852;43.086;25.634;2024-02-16T01:59:54;99559.56;;;5.61;nan
58668;BME280;59852;43.086;25.634;2024-02-16T02:02:20;99564.28;;;5.73;nan
58668;BME280;59852;43.086;25.634;2024-02-16T02:04:45;99559.81;;;5.77;nan
58668;BME280;59852;43.086;25.634;2024-02-16T02:07:11;99560.06;;;5.71;nan
58668;BME280;59852;43.086;25.634;2024-02-16T02:09:36;99570.38;;;5.72;nan
58668;BME280;59852;43.086;25.634;2024-02-16T02:12:03;99564.63;;;5.64;nan
58668;BME280;59852;43.086;25.634;2024-02-16T02:14:28;99567.78;;;5.72;nan
58668;BME280;59852;43.086;25.634;2024-02-16T02:16:53;99568.63;;;5.73;nan
58668;BME280;59852;43.086;25.634;2024-02-16T02:19:19;99567.44;;;5.58;nan
58668;BME280;59852;43.086;25.634;2024-02-16T02:21:44;99561.91;;;5.67;nan
58668;BME280;59852;43.086;25.634;2024-02-16T02:24:09;99564.63;;;5.64;nan
58668;BME280;59852;43.086;25.634;2024-02-16T02:26:35;99566.59;;;5.81;nan
58668;BME280;59852;43.086;25.634;2024-02-16T02:29:01;99569.59;;;5.70;nan
58668;BME280;59852;43.086;25.634;2024-02-16T02:31:26;99568.97;;;5.64;nan
58668;BME280;59852;43.086;25.634;2024-02-16T02:33:51;99581.59;;;5.73;nan
58668;BME280;59852;43.086;25.634;2024-02-16T02:36:17;99577.25;;;5.73;nan
58668;BME280;59852;43.086;25.634;2024-02-16T02:38:42;99582.31;;;5.76;nan
58668;BME280;59852;43.086;25.634;2024-02-16T02:41:09;99586.25;;;5.65;nan
58668;BME280;59852;43.086;25.634;2024-02-16T02:43:34;99584.50;;;5.65;nan
58668;BME280;59852;43.086;25.634;2024-02-16T02:46:00;99595.66;;;5.67;nan
58668;BME280;59852;43.086;25.634;2024-02-16T02:48:25;99589.47;;;5.71;nan
58668;BME280;59852;43.086;25.634;2024-02-16T02:50:50;99593.50;;;5.79;nan
58668;BME280;59852;43.086;25.634;2024-02-16T02:53:15;99588.50;;;5.74;nan
58668;BME280;59852;43.086;25.634;2024-02-16T02:55:43;99591.81;;;5.78;nan
58668;BME280;59852;43.086;25.634;2024-02-16T02:58:08;99593.34;;;5.83;nan
58668;BME280;59852;43.086;25.634;2024-02-16T03:00:33;99596.94;;;5.79;nan
58668;BME280;59852;43.086;25.634;2024-02-16T03:03:00;99596.63;;;5.65;nan
58668;BME280;59852;43.086;25.634;2024-02-16T03:05:26;99598.50;;;5.61;nan
58668;BME280;59852;43.086;25.634;2024-02-16T03:07:51;99595.06;;;5.61;nan
58668;BME280;59852;43.086;25.634;2024-02-16T03:10:17;99606.03;;;5.67;nan
58668;BME280;59852;43.086;25.634;2024-02-16T03:12:47;99603.16;;;5.75;nan
58668;BME280;59852;43.086;25.634;2024-02-16T03:15:14;99602.09;;;5.81;nan
58668;BME280;59852;43.086;25.634;2024-02-16T03:17:39;99604.19;;;5.94;nan
58668;BME280;59852;43.086;25.634;2024-02-16T03:20:05;99605.75;;;5.98;nan
58668;BME280;59852;43.086;25.634;2024-02-16T03:22:30;99613.22;;;6.06;nan
58668;BME280;59852;43.086;25.634;2024-02-16T03:24:56;99604.56;;;5.84;nan
58668;BME280;59852;43.086;25.634;2024-02-16T03:27:21;99608.00;;;5.84;nan
58668;BME280;59852;43.086;25.634;2024-02-16T03:29:46;99604.44;;;5.87;nan
58668;BME280;59852;43.086;25.634;2024-02-16T03:32:12;99611.31;;;5.88;nan
58668;BME280;59852;43.086;25.634;2024-02-16T03:34:38;99614.88;;;5.85;nan
58668;BME280;59852;43.086;25.634;2024-02-16T03:37:03;99604.13;;;5.96;nan
58668;BME280;59852;43.086;25.634;2024-02-16T03:39:29;99618.13;;;5.92;nan
58668;BME280;59852;43.086;25.634;2024-02-16T03:41:54;99618.25;;;5.87;nan
58668;BME280;59852;43.086;25.634;2024-02-16T03:44:20;99619.81;;;5.93;nan
58668;BME280;59852;43.086;25.634;2024-02-16T03:46:46;99622.53;;;5.88;nan
58668;BME280;59852;43.086;25.634;2024-02-16T03:49:11;99622.41;;;5.93;nan
58668;BME280;59852;43.086;25.634;2024-02-16T03:51:37;99619.03;;;5.91;nan
58668;BME280;59852;43.086;25.634;2024-02-16T03:54:02;99627.88;;;5.85;nan
58668;BME280;59852;43.086;25.634;2024-02-16T03:56:29;99626.09;;;5.86;nan
58668;BME280;59852;43.086;25.634;2024-02-16T03:58:54;99623.25;;;5.93;nan
58668;BME280;59852;43.086;25.634;2024-02-16T04:01:20;99626.75;;;5.92;nan
58668;BME280;59852;43.086;25.634;2024-02-16T04:03:45;99625.13;;;5.88;nan
58668;BME280;59852;43.086;25.634;2024-02-16T04:06:10;99619.16;;;5.86;nan
58668;BME280;59852;43.086;25.634;2024-02-16T04:08:36;99627.22;;;5.80;nan
58668;BME280;59852;43.086;25.634;2024-02-16T04:11:01;99616.81;;;5.80;nan
58668;BME280;59852;43.086;25.634;2024-02-16T04:13:27;99620.91;;;5.86;nan
58668;BME280;59852;43.086;25.634;2024-02-16T04:15:53;99619.19;;;5.63;nan
58668;BME280;59852;43.086;25.634;2024-02-16T04:18:18;99622.56;;;5.65;nan
58668;BME280;59852;43.086;25.634;2024-02-16T04:20:43;99627.22;;;5.80;nan
58668;BME280;59852;43.086;25.634;2024-02-16T04:23:09;99621.09;;;5.81;nan
58668;BME280;59852;43.086;25.634;2024-02-16T04:25:34;99624.88;;;5.72;nan
58668;BME280;59852;43.086;25.634;2024-02-16T04:28:00;99624.31;;;5.64;nan
58668;BME280;59852;43.086;25.634;2024-02-16T04:30:25;99634.19;;;5.78;nan
58668;BME280;59852;43.086;25.634;2024-02-16T04:32:51;99633.00;;;5.87;nan
58668;BME280;59852;43.086;25.634;2024-02-16T04:35:16;99635.16;;;5.75;nan
58668;BME280;59852;43.086;25.634;2024-02-16T04:37:41;99636.56;;;5.61;nan
58668;BME280;59852;43.086;25.634;2024-02-16T04:40:07;99635.88;;;5.56;nan
58668;BME280;59852;43.086;25.634;2024-02-16T04:42:33;99635.81;;;5.34;nan
58668;BME280;59852;43.086;25.634;2024-02-16T04:44:58;99638.94;;;5.43;nan
58668;BME280;59852;43.086;25.634;2024-02-16T04:47:27;99638.41;;;5.34;nan
58668;BME280;59852;43.086;25.634;2024-02-16T04:49:52;99643.34;;;5.41;nan
58668;BME280;59852;43.086;25.634;2024-02-16T04:52:17;99640.34;;;5.52;nan
58668;BME280;59852;43.086;25.634;2024-02-16T04:54:43;99639.84;;;5.66;nan
58668;BME280;59852;43.086;25.634;2024-02-16T04:57:08;99636.41;;;5.65;nan
58668;BME280;59852;43.086;25.634;2024-02-16T04:59:33;99642.63;;;5.61;nan
58668;BME280;59852;43.086;25.634;2024-02-16T05:01:59;99643.22;;;5.68;nan
58668;BME280;59852;43.086;25.634;2024-02-16T05:04:24;99638.41;;;5.57;nan
58668;BME280;59852;43.086;25.634;2024-02-16T05:06:49;99648.78;;;5.57;nan
58668;BME280;59852;43.086;25.634;2024-02-16T05:09:16;99652.34;;;5.55;nan
58668;BME280;59852;43.086;25.634;2024-02-16T05:11:42;99647.91;;;5.58;nan
58668;BME280;59852;43.086;25.634;2024-02-16T05:14:08;99648.59;;;5.63;nan
58668;BME280;59852;43.086;25.634;2024-02-16T05:16:33;99661.16;;;5.51;nan
58668;BME280;59852;43.086;25.634;2024-02-16T05:18:58;99659.50;;;5.48;nan
58668;BME280;59852;43.086;25.634;2024-02-16T05:21:24;99655.66;;;5.35;nan
58668;BME280;59852;43.086;25.634;2024-02-16T05:23:49;99670.16;;;5.40;nan
58668;BME280;59852;43.086;25.634;2024-02-16T05:26:14;99663.19;;;5.42;nan
58668;BME280;59852;43.086;25.634;2024-02-16T05:28:40;99672.03;;;5.37;nan
58668;BME280;59852;43.086;25.634;2024-02-16T05:31:16;99666.94;;;5.34;nan
58668;BME280;59852;43.086;25.634;2024-02-16T05:33:43;99667.91;;;5.31;nan
58668;BME280;59852;43.086;25.634;2024-02-16T05:36:08;99670.59;;;5.28;nan
58668;BME280;59852;43.086;25.634;2024-02-16T05:38:34;99671.50;;;5.27;nan
58668;BME280;59852;43.086;25.634;2024-02-16T05:41:05;99672.03;;;5.37;nan
58668;BME280;59852;43.086;25.634;2024-02-16T05:43:31;99688.00;;;5.50;nan
58668;BME280;59852;43.086;25.634;2024-02-16T05:45:56;99687.00;;;5.54;nan
58668;BME280;59852;43.086;25.634;2024-02-16T05:48:21;99691.22;;;5.56;nan
58668;BME280;59852;43.086;25.634;2024-02-16T05:50:47;99692.34;;;5.49;nan
58668;BME280;59852;43.086;25.634;2024-02-16T05:53:12;99691.72;;;5.42;nan
58668;BME280;59852;43.086;25.634;2024-02-16T05:55:37;99693.03;;;5.29;nan
58668;BME280;59852;43.086;25.634;2024-02-16T05:58:02;99694.84;;;5.27;nan
58668;BME280;59852;43.086;25.634;2024-02-16T06:00:32;99696.91;;;5.42;nan
58668;BME280;59852;43.086;25.634;2024-02-16T06:02:58;99695.94;;;5.45;nan
58668;BME280;59852;43.086;25.634;2024-02-16T06:05:23;99698.75;;;5.39;nan
58668;BME280;59852;43.086;25.634;2024-02-16T06:07:48;99705.75;;;5.62;nan
58668;BME280;59852;43.086;25.634;2024-02-16T06:10:14;99699.59;;;5.64;nan
58668;BME280;59852;43.086;25.634;2024-02-16T06:12:39;99708.88;;;5.70;nan
58668;BME280;59852;43.086;25.634;2024-02-16T06:15:05;99699.31;;;5.72;nan
58668;BME280;59852;43.086;25.634;2024-02-16T06:17:30;99706.25;;;5.71;nan
58668;BME280;59852;43.086;25.634;2024-02-16T06:19:56;99705.09;;;5.80;nan
58668;BME280;59852;43.086;25.634;2024-02-16T06:22:21;99705.97;;;5.79;nan
58668;BME280;59852;43.086;25.634;2024-02-16T06:24:46;99711.13;;;5.81;nan
58668;BME280;59852;43.086;25.634;2024-02-16T06:27:12;99709.19;;;5.86;nan
58668;BME280;59852;43.086;25.634;2024-02-16T06:29:38;99704.53;;;5.95;nan
58668;BME280;59852;43.086;25.634;2024-02-16T06:32:03;99697.44;;;6.00;nan
58668;BME280;59852;43.086;25.634;2024-02-16T06:34:29;99701.81;;;5.98;nan
58668;BME280;59852;43.086;25.634;2024-02-16T06:36:55;99702.66;;;5.99;nan
58668;BME280;59852;43.086;25.634;2024-02-16T06:39:20;99705.56;;;5.90;nan
58668;BME280;59852;43.086;25.634;2024-02-16T06:41:46;99702.00;;;5.94;nan
58668;BME280;59852;43.086;25.634;2024-02-16T06:44:11;99699.06;;;6.03;nan
58668;BME280;59852;43.086;25.634;2024-02-16T06:46:37;99697.09;;;6.10;nan
58668;BME280;59852;43.086;25.634;2024-02-16T06:49:02;99700.69;;;6.06;nan
58668;BME280;59852;43.086;25.634;2024-02-16T06:51:28;99696.97;;;6.13;nan
58668;BME280;59852;43.086;25.634;2024-02-16T06:53:54;99704.75;;;6.13;nan
58668;BME280;59852;43.086;25.634;2024-02-16T06:56:20;99707.06;;;5.97;nan
58668;BME280;59852;43.086;25.634;2024-02-16T06:58:45;99702.66;;;5.99;nan
58668;BME280;59852;43.086;25.634;2024-02-16T07:01:14;99704.00;;;6.09;nan
58668;BME280;59852;43.086;25.634;2024-02-16T07:03:40;99712.94;;;6.25;nan
58668;BME280;59852;43.086;25.634;2024-02-16T07:06:05;99706.88;;;6.25;nan
58668;BME280;59852;43.086;25.634;2024-02-16T07:08:36;99710.03;;;6.33;nan
58668;BME280;59852;43.086;25.634;2024-02-16T07:11:01;99716.25;;;6.29;nan
58668;BME280;59852;43.086;25.634;2024-02-16T07:13:30;99718.72;;;6.10;nan
58668;BME280;59852;43.086;25.634;2024-02-16T07:15:55;99719.47;;;5.90;nan
58668;BME280;59852;43.086;25.634;2024-02-16T07:18:20;99718.91;;;5.81;nan
58668;BME280;59852;43.086;25.634;2024-02-16T07:20:46;99720.47;;;6.10;nan
58668;BME280;59852;43.086;25.634;2024-02-16T07:23:12;99719.44;;;5.89;nan
58668;BME280;59852;43.086;25.634;2024-02-16T07:25:37;99715.09;;;6.14;nan
58668;BME280;59852;43.086;25.634;2024-02-16T07:28:03;99721.13;;;6.15;nan
58668;BME280;59852;43.086;25.634;2024-02-16T07:30:28;99720.41;;;6.11;nan
58668;BME280;59852;43.086;25.634;2024-02-16T07:32:54;99719.72;;;6.29;nan
58668;BME280;59852;43.086;25.634;2024-02-16T07:35:19;99724.53;;;6.39;nan
58668;BME280;59852;43.086;25.634;2024-02-16T07:37:46;99718.25;;;6.44;nan
58668;BME280;59852;43.086;25.634;2024-02-16T07:40:11;99719.59;;;6.54;nan
58668;BME280;59852;43.086;25.634;2024-02-16T07:42:40;99726.81;;;6.24;nan
58668;BME280;59852;43.086;25.634;2024-02-16T07:45:07;99725.59;;;6.11;nan
58668;BME280;59852;43.086;25.634;2024-02-16T07:47:32;99728.91;;;6.60;nan
58668;BME280;59852;43.086;25.634;2024-02-16T07:49:58;99728.38;;;6.52;nan
58668;BME280;59852;43.086;25.634;2024-02-16T07:52:23;99736.75;;;6.58;nan
58668;BME280;59852;43.086;25.634;2024-02-16T07:54:48;99722.63;;;6.44;nan
58668;BME280;59852;43.086;25.634;2024-02-16T07:57:16;99732.44;;;6.36;nan
58668;BME280;59852;43.086;25.634;2024-02-16T07:59:42;99734.22;;;6.57;nan
58668;BME280;59852;43.086;25.634;2024-02-16T08:02:07;99729.28;;;6.51;nan
58668;BME280;59852;43.086;25.634;2024-02-16T08:04:34;99736.47;;;6.66;nan
58668;BME280;59852;43.086;25.634;2024-02-16T08:07:00;99741.00;;;6.83;nan
58668;BME280;59852;43.086;25.634;2024-02-16T08:09:26;99745.38;;;6.60;nan
58668;BME280;59852;43.086;25.634;2024-02-16T08:11:51;99740.22;;;6.59;nan
58668;BME280;59852;43.086;25.634;2024-02-16T08:14:17;99745.41;;;6.81;nan
58668;BME280;59852;43.086;25.634;2024-02-16T08:16:42;99740.22;;;6.59;nan
58668;BME280;59852;43.086;25.634;2024-02-16T08:19:07;99747.66;;;6.90;nan
58668;BME280;59852;43.086;25.634;2024-02-16T08:21:33;99750.84;;;6.75;nan
58668;BME280;59852;43.086;25.634;2024-02-16T08:23:58;99749.78;;;6.80;nan
58668;BME280;59852;43.086;25.634;2024-02-16T08:26:23;99749.22;;;6.94;nan
58668;BME280;59852;43.086;25.634;2024-02-16T08:28:49;99746.84;;;6.66;nan
58668;BME280;59852;43.086;25.634;2024-02-16T08:31:14;99752.84;;;6.90;nan
58668;BME280;59852;43.086;25.634;2024-02-16T08:33:40;99746.44;;;6.77;nan
58668;BME280;59852;43.086;25.634;2024-02-16T08:36:06;99744.88;;;6.73;nan
58668;BME280;59852;43.086;25.634;2024-02-16T08:38:32;99752.31;;;6.82;nan
58668;BME280;59852;43.086;25.634;2024-02-16T08:40:57;99750.72;;;7.00;nan
58668;BME280;59852;43.086;25.634;2024-02-16T08:43:24;99754.34;;;6.96;nan
58668;BME280;59852;43.086;25.634;2024-02-16T08:45:49;99754.88;;;7.04;nan
58668;BME280;59852;43.086;25.634;2024-02-16T08:48:14;99747.91;;;6.62;nan
58668;BME280;59852;43.086;25.634;2024-02-16T08:50:40;99746.78;;;6.68;nan
58668;BME280;59852;43.086;25.634;2024-02-16T08:53:05;99748.03;;;6.81;nan
58668;BME280;59852;43.086;25.634;2024-02-16T08:55:30;99753.09;;;6.62;nan
58668;BME280;59852;43.086;25.634;2024-02-16T08:57:57;99752.31;;;6.82;nan
58668;BME280;59852;43.086;25.634;2024-02-16T09:00:22;99755.19;;;6.74;nan
58668;BME280;59852;43.086;25.634;2024-02-16T09:02:50;99749.94;;;6.76;nan
58668;BME280;59852;43.086;25.634;2024-02-16T09:05:15;99751.75;;;6.96;nan
58668;BME280;59852;43.086;25.634;2024-02-16T09:07:41;99758.91;;;6.90;nan
58668;BME280;59852;43.086;25.634;2024-02-16T09:10:06;99758.66;;;6.75;nan
58668;BME280;59852;43.086;25.634;2024-02-16T09:12:33;99760.59;;;6.92;nan
58668;BME280;59852;43.086;25.634;2024-02-16T09:14:58;99764.50;;;7.02;nan
58668;BME280;59852;43.086;25.634;2024-02-16T09:17:23;99759.66;;;7.14;nan
58668;BME280;59852;43.086;25.634;2024-02-16T09:19:48;99764.00;;;7.14;nan
58668;BME280;59852;43.086;25.634;2024-02-16T09:22:14;99766.91;;;7.06;nan
58668;BME280;59852;43.086;25.634;2024-02-16T09:24:39;99762.06;;;7.19;nan
58668;BME280;59852;43.086;25.634;2024-02-16T09:27:05;99766.38;;;7.20;nan
58668;BME280;59852;43.086;25.634;2024-02-16T09:29:32;99768.06;;;7.21;nan
58668;BME280;59852;43.086;25.634;2024-02-16T09:31:58;99767.41;;;7.36;nan
58668;BME280;59852;43.086;25.634;2024-02-16T09:34:23;99765.59;;;7.38;nan
58668;BME280;59852;43.086;25.634;2024-02-16T09:36:48;99772.50;;;7.39;nan
58668;BME280;59852;43.086;25.634;2024-02-16T09:39:14;99760.88;;;7.26;nan
58668;BME280;59852;43.086;25.634;2024-02-16T09:41:41;99766.38;;;7.40;nan
58668;BME280;59852;43.086;25.634;2024-02-16T09:44:07;99772.66;;;7.14;nan
58668;BME280;59852;43.086;25.634;2024-02-16T09:46:32;99771.53;;;7.42;nan
58668;BME280;59852;43.086;25.634;2024-02-16T09:49:01;99768.91;;;7.22;nan
58668;BME280;59852;43.086;25.634;2024-02-16T09:51:27;99772.94;;;7.29;nan
58668;BME280;59852;43.086;25.634;2024-02-16T09:53:53;99775.88;;;7.41;nan
58668;BME280;59852;43.086;25.634;2024-02-16T09:56:18;99772.44;;;7.41;nan
58668;BME280;59852;43.086;25.634;2024-02-16T09:58:44;99776.97;;;7.36;nan
58668;BME280;59852;43.086;25.634;2024-02-16T10:01:16;99767.28;;;7.39;nan
58668;BME280;59852;43.086;25.634;2024-02-16T10:03:43;99765.00;;;7.32;nan
58668;BME280;59852;43.086;25.634;2024-02-16T10:06:09;99761.16;;;7.20;nan
58668;BME280;59852;43.086;25.634;2024-02-16T10:08:35;99759.81;;;7.32;nan
58668;BME280;59852;43.086;25.634;2024-02-16T10:11:01;99752.13;;;7.29;nan
58668;BME280;59852;43.086;25.634;2024-02-16T10:13:27;99750.38;;;7.50;nan
58668;BME280;59852;43.086;25.634;2024-02-16T10:15:52;99753.16;;;7.45;nan
58668;BME280;59852;43.086;25.634;2024-02-16T10:18:28;99750.78;;;7.40;nan
58668;BME280;59852;43.086;25.634;2024-02-16T10:20:54;99741.03;;;7.64;nan
58668;BME280;59852;43.086;25.634;2024-02-16T10:23:19;99748.78;;;7.66;nan
58668;BME280;59852;43.086;25.634;2024-02-16T10:25:44;99748.94;;;7.63;nan
58668;BME280;59852;43.086;25.634;2024-02-16T10:28:10;99736.13;;;7.58;nan
58668;BME280;59852;43.086;25.634;2024-02-16T10:30:41;99733.72;;;7.54;nan
58668;BME280;59852;43.086;25.634;2024-02-16T10:33:08;99735.53;;;7.52;nan
58668;BME280;59852;43.086;25.634;2024-02-16T10:35:34;99742.56;;;7.50;nan
58668;BME280;59852;43.086;25.634;2024-02-16T10:38:03;99742.19;;;7.38;nan
58668;BME280;59852;43.086;25.634;2024-02-16T10:40:34;99729.66;;;7.26;nan
58668;BME280;59852;43.086;25.634;2024-02-16T10:43:05;99729.22;;;7.57;nan
58668;BME280;59852;43.086;25.634;2024-02-16T10:45:34;99731.16;;;7.52;nan
58668;BME280;59852;43.086;25.634;2024-02-16T10:48:03;99717.16;;;7.55;nan
58668;BME280;59852;43.086;25.634;2024-02-16T10:50:29;99724.97;;;7.55;nan
58668;BME280;59852;43.086;25.634;2024-02-16T10:52:55;99729.03;;;7.41;nan
58668;BME280;59852;43.086;25.634;2024-02-16T10:55:22;99721.53;;;7.54;nan
58668;BME280;59852;43.086;25.634;2024-02-16T10:57:49;99723.56;;;7.68;nan
58668;BME280;59852;43.086;25.634;2024-02-16T11:00:15;99721.00;;;7.66;nan
58668;BME280;59852;43.086;25.634;2024-02-16T11:02:53;99716.16;;;7.59;nan
58668;BME280;59852;43.086;25.634;2024-02-16T11:05:31;99720.84;;;7.51;nan
58668;BME280;59852;43.086;25.634;2024-02-16T11:08:02;99718.75;;;7.59;nan
58668;BME280;59852;43.086;25.634;2024-02-16T11:10:28;99718.47;;;7.44;nan
58668;BME280;59852;43.086;25.634;2024-02-16T11:12:53;99721.69;;;7.31;nan
58668;BME280;59852;43.086;25.634;2024-02-16T11:15:34;99713.66;;;7.35;nan
58668;BME280;59852;43.086;25.634;2024-02-16T11:18:01;99711.19;;;7.32;nan
58668;BME280;59852;43.086;25.634;2024-02-16T11:20:27;99711.00;;;7.37;nan
58668;BME280;59852;43.086;25.634;2024-02-16T11:22:52;99715.50;;;7.33;nan
58668;BME280;59852;43.086;25.634;2024-02-16T11:25:18;99707.09;;;7.47;nan
58668;BME280;59852;43.086;25.634;2024-02-16T11:27:45;99701.84;;;7.48;nan
58668;BME280;59852;43.086;25.634;2024-02-16T11:30:11;99704.09;;;7.56;nan
58668;BME280;59852;43.086;25.634;2024-02-16T11:32:36;99698.31;;;7.50;nan
58668;BME280;59852;43.086;25.634;2024-02-16T11:35:05;99700.84;;;7.51;nan
58668;BME280;59852;43.086;25.634;2024-02-16T11:37:31;99699.41;;;7.44;nan
58668;BME280;59852;43.086;25.634;2024-02-16T11:39:57;99696.63;;;7.48;nan
58668;BME280;59852;43.086;25.634;2024-02-16T11:42:22;99698.94;;;7.55;nan
58668;BME280;59852;43.086;25.634;2024-02-16T11:44:54;99695.72;;;7.50;nan
58668;BME280;59852;43.086;25.634;2024-02-16T11:47:20;99702.97;;;7.62;nan
58668;BME280;59852;43.086;25.634;2024-02-16T11:49:50;99694.31;;;7.61;nan
58668;BME280;59852;43.086;25.634;2024-02-16T11:52:24;99694.09;;;7.66;nan
58668;BME280;59852;43.086;25.634;2024-02-16T11:54:49;99690.34;;;7.73;nan
58668;BME280;59852;43.086;25.634;2024-02-16T11:57:15;99691.53;;;7.45;nan
58668;BME280;59852;43.086;25.634;2024-02-16T11:59:40;99691.72;;;7.61;nan
58668;BME280;59852;43.086;25.634;2024-02-16T12:02:06;99685.31;;;7.50;nan
58668;BME280;59852;43.086;25.634;2024-02-16T12:04:31;99681.09;;;7.66;nan
58668;BME280;59852;43.086;25.634;2024-02-16T12:06:57;99683.31;;;7.55;nan
58668;BME280;59852;43.086;25.634;2024-02-16T12:09:23;99678.50;;;7.66;nan
58668;BME280;59852;43.086;25.634;2024-02-16T12:11:49;99674.50;;;7.78;nan
58668;BME280;59852;43.086;25.634;2024-02-16T12:14:18;99681.94;;;7.66;nan
58668;BME280;59852;43.086;25.634;2024-02-16T12:16:47;99671.13;;;7.75;nan
58668;BME280;59852;43.086;25.634;2024-02-16T12:19:13;99682.88;;;7.45;nan
58668;BME280;59852;43.086;25.634;2024-02-16T12:21:39;99676.81;;;7.65;nan
58668;BME280;59852;43.086;25.634;2024-02-16T12:24:05;99668.16;;;7.83;nan
58668;BME280;59852;43.086;25.634;2024-02-16T12:26:30;99673.38;;;7.83;nan
58668;BME280;59852;43.086;25.634;2024-02-16T12:28:56;99667.88;;;7.70;nan
58668;BME280;59852;43.086;25.634;2024-02-16T12:31:21;99671.53;;;7.66;nan
58668;BME280;59852;43.086;25.634;2024-02-16T12:33:47;99669.31;;;7.96;nan
58668;BME280;59852;43.086;25.634;2024-02-16T12:36:12;99668.53;;;7.94;nan
58668;BME280;59852;43.086;25.634;2024-02-16T12:38:38;99670.16;;;7.78;nan
58668;BME280;59852;43.086;25.634;2024-02-16T12:41:03;99671.34;;;7.90;nan
58668;BME280;59852;43.086;25.634;2024-02-16T12:43:28;99666.13;;;7.90;nan
58668;BME280;59852;43.086;25.634;2024-02-16T12:45:54;99670.00;;;8.00;nan
58668;BME280;59852;43.086;25.634;2024-02-16T12:48:20;99665.66;;;8.00;nan
58668;BME280;59852;43.086;25.634;2024-02-16T12:50:45;99665.00;;;7.95;nan
58668;BME280;59852;43.086;25.634;2024-02-16T12:53:12;99667.19;;;7.86;nan
58668;BME280;59852;43.086;25.634;2024-02-16T12:55:37;99670.22;;;7.95;nan
58668;BME280;59852;43.086;25.634;2024-02-16T12:58:03;99667.91;;;7.89;nan
58668;BME280;59852;43.086;25.634;2024-02-16T13:00:28;99668.50;;;7.75;nan
58668;BME280;59852;43.086;25.634;2024-02-16T13:02:54;99665.38;;;8.07;nan
58668;BME280;59852;43.086;25.634;2024-02-16T13:05:20;99661.94;;;7.87;nan
58668;BME280;59852;43.086;25.634;2024-02-16T13:07:46;99665.16;;;7.92;nan
58668;BME280;59852;43.086;25.634;2024-02-16T13:10:11;99670.13;;;8.16;nan
58668;BME280;59852;43.086;25.634;2024-02-16T13:12:37;99663.72;;;8.04;nan
58668;BME280;59852;43.086;25.634;2024-02-16T13:15:03;99665.41;;;8.05;nan